Time;durP1;ratioP1;P1;durP2;ratioP2;P2;SDS_P1;SDS_P2;PMS_P1;PMS_P2;Temp;Humidity;BMP_temperature;BMP_pressure;BME280_temperature;BME280_humidity;BME280_pressure;Samples;Min_cycle;Max_cycle;Signal;HPM_P1;HPM_P2
2022/08/12 00:42:55;;;;;;;8.52;7.82;;;;;;;19.64;56.18;100821.84;6069084;23;96698;-84
2022/08/12 00:45:20;;;;;;;10.18;8.48;;;;;;;19.80;56.08;100843.03;6042267;23;97006;-83
2022/08/12 00:47:46;;;;;;;9.00;8.23;;;;;;;19.69;56.19;100813.56;6062720;23;97415;-82
2022/08/12 00:50:18;;;;;;;8.82;8.13;;;;;;;19.79;56.18;100832.50;6062402;23;100163;-83
2022/08/12 00:52:46;;;;;;;8.80;7.78;;;;;;;19.96;55.95;100829.59;6059385;23;97133;-82
2022/08/12 00:55:12;;;;;;;8.77;7.97;;;;;;;19.98;55.73;100827.66;6063531;23;96994;-83
2022/08/12 00:57:43;;;;;;;8.48;7.78;;;;;;;20.02;55.67;100825.69;6045863;23;101454;-85
2022/08/12 01:00:13;;;;;;;;;;;;;;;19.88;56.01;100830.09;6063290;23;99985;-83
2022/08/12 01:02:46;;;;;;;8.85;7.93;;;;;;;19.90;55.97;100814.88;6039873;23;96376;-82
2022/08/12 01:13:40;;;;;;;9.43;8.00;;;;;;;19.85;56.39;100824.97;6090828;23;97206;-82
2022/08/12 01:16:07;;;;;;;13.85;8.50;;;;;;;19.90;56.02;100819.34;6016149;23;97156;-84
2022/08/12 01:18:38;;;;;;;8.98;8.18;;;;;;;19.93;56.25;100829.81;6064959;23;97658;-84
2022/08/12 01:21:25;;;;;;;9.02;8.23;;;;;;;19.98;56.17;100818.81;6063689;23;97968;-83
2022/08/12 01:24:12;;;;;;;10.23;8.52;;;;;;;19.91;56.07;100813.06;6090402;23;98396;-85
2022/08/12 01:26:39;;;;;;;9.02;8.43;;;;;;;19.97;56.00;100819.78;6039965;23;98174;-84
2022/08/12 01:29:06;;;;;;;9.13;8.20;;;;;;;19.79;56.57;100805.88;6038885;23;101477;-84
2022/08/12 01:31:34;;;;;;;9.98;8.63;;;;;;;19.90;56.18;100817.53;6016281;23;101019;-84
2022/08/12 01:34:06;;;;;;;9.73;8.77;;;;;;;19.76;56.66;100817.56;6040252;23;96597;-82
2022/08/12 01:36:40;;;;;;;9.02;8.23;;;;;;;19.79;56.74;100824.50;6039194;23;97284;-83
2022/08/12 01:39:06;;;;;;;9.40;8.50;;;;;;;19.75;56.72;100820.31;6089529;23;98077;-84
2022/08/12 01:41:35;;;;;;;8.80;8.00;;;;;;;19.76;56.75;100811.41;6041165;23;100292;-84
2022/08/12 01:44:02;;;;;;;8.75;8.05;;;;;;;19.76;56.72;100814.06;6040350;23;97177;-82
2022/08/12 01:46:58;;;;;;;12.27;7.97;;;;;;;19.76;56.77;100820.22;6041745;23;96995;-84
2022/08/12 01:49:30;;;;;;;9.63;8.70;;;;;;;19.74;56.85;100827.47;6048723;23;100407;-82
2022/08/12 01:52:03;;;;;;;10.52;8.40;;;;;;;19.61;56.78;100813.22;6039048;23;101464;-84
2022/08/12 01:54:42;;;;;;;9.10;8.27;;;;;;;19.85;56.25;100819.63;6016655;23;97265;-82
2022/08/12 01:57:09;;;;;;;9.38;8.43;;;;;;;19.72;56.77;100823.19;6064734;23;96681;-85
2022/08/12 01:59:55;;;;;;;8.98;8.18;;;;;;;19.68;56.65;100814.53;6041731;23;101541;-84
2022/08/12 02:02:38;;;;;;;9.18;8.48;;;;;;;19.79;56.38;100828.03;6065619;23;101092;-84
2022/08/12 02:11:15;;;;;;;9.85;8.98;;;;;;;19.66;57.44;100827.97;6064833;23;100229;-84
2022/08/12 02:14:05;;;;;;;8.10;7.55;;;;;;;19.69;57.18;100832.22;6041505;23;99897;-83
2022/08/12 02:16:38;;;;;;;9.27;8.57;;;;;;;19.80;56.82;100821.72;6064804;23;97125;-84
2022/08/12 02:19:45;;;;;;;8.93;8.32;;;;;;;19.85;56.98;100822.28;6041279;23;96806;-84
2022/08/12 02:22:36;;;;;;;9.15;8.50;;;;;;;19.84;57.11;100828.59;6039463;23;101374;-83
2022/08/12 02:25:07;;;;;;;9.85;9.05;;;;;;;19.57;57.30;100803.69;6017292;23;101204;-84
2022/08/12 02:27:38;;;;;;;8.90;8.23;;;;;;;19.81;57.04;100838.56;6016888;23;97345;-84
2022/08/12 02:30:07;;;;;;;9.57;8.68;;;;;;;19.64;57.21;100819.19;6026216;23;96648;-84
2022/08/12 02:32:37;;;;;;;9.05;8.40;;;;;;;19.79;56.99;100836.00;6013019;23;97078;-83
2022/08/12 02:35:04;;;;;;;9.77;8.68;;;;;;;19.65;57.39;100820.06;6012814;23;101831;-82
2022/08/12 02:37:30;;;;;;;10.10;9.20;;;;;;;19.62;57.58;100823.75;5988136;23;97145;-83
2022/08/12 02:39:56;;;;;;;9.07;8.38;;;;;;;19.60;57.20;100812.31;6036654;23;97040;-84
2022/08/12 02:42:22;;;;;;;9.18;8.50;;;;;;;19.62;57.80;100833.53;6010532;23;101661;-84
2022/08/12 02:44:50;;;;;;;10.30;9.25;;;;;;;19.60;57.75;100816.78;6035883;23;97762;-84
2022/08/12 02:47:17;;;;;;;9.80;9.00;;;;;;;19.52;57.79;100808.44;6011986;23;97250;-82
2022/08/12 02:49:49;;;;;;;10.45;9.13;;;;;;;19.74;57.74;100832.78;6011779;23;96904;-83
2022/08/12 02:52:16;;;;;;;9.77;8.77;;;;;;;19.76;57.51;100830.88;6010617;23;100373;-84
2022/08/12 02:54:43;;;;;;;10.70;9.85;;;;;;;19.77;57.59;100829.06;6011147;23;100749;-83
2022/08/12 02:57:11;;;;;;;9.90;9.20;;;;;;;19.67;57.95;100823.50;6011671;23;97521;-83
2022/08/12 02:59:37;;;;;;;10.60;8.77;;;;;;;19.64;57.56;100799.69;5988929;23;96813;-83
2022/08/12 03:02:03;;;;;;;10.52;9.27;;;;;;;19.65;57.73;100788.97;6011411;23;101529;-83
2022/08/12 03:04:37;;;;;;;10.32;9.43;;;;;;;19.70;58.22;100820.63;6012139;23;101595;-83
2022/08/12 03:07:21;;;;;;;9.40;8.70;;;;;;;19.75;58.14;100823.84;6010534;23;96696;-82
2022/08/12 03:09:50;;;;;;;9.57;8.82;;;;;;;19.72;57.90;100801.88;6010490;23;96627;-83
2022/08/12 03:12:17;;;;;;;10.02;9.15;;;;;;;19.78;57.77;100810.34;6010855;23;98014;-83
2022/08/12 03:14:43;;;;;;;10.70;9.80;;;;;;;19.56;58.45;100791.34;5987192;23;101477;-83
2022/08/12 03:17:17;;;;;;;10.20;9.30;;;;;;;19.78;57.88;100799.69;6011864;23;97343;-84
2022/08/12 03:19:44;;;;;;;9.75;8.95;;;;;;;19.62;58.67;100798.94;6036992;23;96890;-81
2022/08/12 03:22:14;;;;;;;9.85;9.05;;;;;;;19.64;58.48;100799.69;6011651;23;100662;-84
2022/08/12 03:24:42;;;;;;;12.25;8.63;;;;;;;19.58;58.82;100808.94;6011770;23;100990;-83
2022/08/12 03:27:09;;;;;;;11.07;9.43;;;;;;;19.56;59.09;100805.50;6010615;23;97045;-83
2022/08/12 03:29:36;;;;;;;10.38;9.38;;;;;;;19.43;58.99;100786.81;6021159;23;96835;-84
2022/08/12 03:32:06;;;;;;;11.45;9.57;;;;;;;19.44;59.07;100790.31;6040133;23;101682;-83
2022/08/12 03:34:34;;;;;;;11.27;10.18;;;;;;;19.61;59.15;100806.06;6041117;23;97501;-82
2022/08/12 03:37:04;;;;;;;12.60;9.75;;;;;;;19.64;59.00;100808.53;6040731;23;96630;-84
2022/08/12 03:42:26;;;;;;;12.35;9.60;;;;;;;19.65;58.99;100807.59;6062396;23;98244;-81
2022/08/12 04:00:34;;;;;;;10.30;9.43;;;;;;;19.53;59.53;100821.66;6067813;23;97037;-82
2022/08/12 04:03:50;;;;;;;10.73;9.82;;;;;;;19.56;59.11;100817.97;6040397;23;96863;-83
2022/08/12 04:05:48;;;;;;;10.82;9.88;;;;;;;19.57;59.42;100827.66;6045296;23;100956;-84
2022/08/12 04:08:15;;;;;;;10.23;9.18;;;;;;;19.49;59.49;100825.50;6040288;23;97344;-83
2022/08/12 04:13:30;;;;;;;10.52;9.63;;;;;;;19.58;59.11;100830.22;6043614;23;97203;-83
2022/08/12 04:15:55;;;;;;;;;;;;;;;19.57;59.05;100836.47;6041761;23;100427;-83
2022/08/12 04:18:22;;;;;;;10.45;9.68;;;;;;;19.60;58.89;100833.63;6037893;23;100826;-83
2022/08/12 04:20:48;;;;;;;10.98;10.13;;;;;;;19.44;58.87;100806.28;6040078;23;96696;-83
2022/08/12 04:23:15;;;;;;;11.82;10.05;;;;;;;19.62;58.61;100831.72;6040024;23;97165;-83
2022/08/12 04:25:41;;;;;;;10.55;9.85;;;;;;;19.65;58.52;100849.34;6039325;23;101616;-83
2022/08/12 04:28:08;;;;;;;11.65;10.75;;;;;;;19.67;58.46;100834.16;6063513;23;97460;-82
2022/08/12 04:30:34;;;;;;;11.30;10.07;;;;;;;19.59;58.29;100826.59;6020459;23;96834;-83
2022/08/12 04:33:00;;;;;;;10.05;9.23;;;;;;;19.65;58.15;100850.22;6012173;23;97122;-83
2022/08/12 04:35:26;;;;;;;12.88;10.93;;;;;;;19.66;58.10;100840.41;5987447;23;101166;-83
2022/08/12 04:37:54;;;;;;;9.40;8.77;;;;;;;19.78;57.57;100846.75;6035660;23;97681;-84
2022/08/12 04:40:22;;;;;;;9.68;9.05;;;;;;;19.78;56.91;100844.97;5987154;23;96998;-83
2022/08/12 04:42:47;;;;;;;9.95;9.00;;;;;;;19.67;56.89;100832.34;5987964;23;96878;-83
2022/08/12 04:45:13;;;;;;;9.90;9.10;;;;;;;19.76;57.12;100848.69;6010542;23;101233;-82
2022/08/12 04:47:38;;;;;;;10.10;9.40;;;;;;;19.90;56.61;100833.50;6035750;23;97348;-83
2022/08/12 04:50:05;;;;;;;9.40;8.63;;;;;;;20.23;56.18;100844.72;6011088;23;96682;-81
2022/08/12 04:52:30;;;;;;;9.57;8.98;;;;;;;20.32;55.78;100846.78;5987980;23;97289;-83
2022/08/12 04:54:56;;;;;;;9.77;8.88;;;;;;;20.29;55.71;100831.00;6034739;23;101371;-84
2022/08/12 04:57:22;;;;;;;10.05;9.18;;;;;;;20.22;55.76;100845.69;6010134;23;101023;-83
2022/08/12 04:59:48;;;;;;;11.13;8.98;;;;;;;20.13;56.03;100845.34;6035454;23;97357;-84
2022/08/12 05:02:14;;;;;;;9.52;8.93;;;;;;;20.05;55.91;100844.97;6035679;23;97074;-85
2022/08/12 05:04:41;;;;;;;10.15;9.25;;;;;;;19.94;56.27;100841.31;5987606;23;100950;-84
2022/08/12 05:07:07;;;;;;;9.32;8.63;;;;;;;19.86;56.16;100829.31;6034028;23;98029;-84
2022/08/12 05:09:32;;;;;;;10.00;9.25;;;;;;;19.83;56.22;100824.19;6011400;23;97244;-84
2022/08/12 05:11:58;;;;;;;9.95;9.00;;;;;;;19.88;56.42;100819.44;6011343;23;96968;-84
2022/08/12 05:14:23;;;;;;;9.77;9.05;;;;;;;20.02;55.84;100823.88;5987016;23;101530;-85
2022/08/12 05:16:49;;;;;;;9.48;8.77;;;;;;;20.18;55.83;100814.84;6036002;23;97761;-83
2022/08/12 05:19:15;;;;;;;10.15;9.38;;;;;;;20.58;54.69;100821.06;6012495;23;97278;-85
2022/08/12 05:21:44;;;;;;;9.48;8.68;;;;;;;20.78;54.50;100803.69;6012624;23;97088;-84
2022/08/12 05:24:09;;;;;;;9.63;9.02;;;;;;;21.08;53.79;100805.19;6011506;23;98449;-82
2022/08/12 05:26:35;;;;;;;10.63;9.63;;;;;;;21.28;53.33;100815.31;6036148;23;97808;-81
2022/08/12 05:29:00;;;;;;;9.50;8.65;;;;;;;21.38;52.97;100819.06;5990270;23;96755;-83
2022/08/12 05:31:26;;;;;;;9.73;8.93;;;;;;;21.54;52.81;100808.13;6041518;23;97329;-83
2022/08/12 05:33:51;;;;;;;9.20;8.40;;;;;;;21.97;52.18;100813.00;6065949;23;97482;-82
2022/08/12 05:36:18;;;;;;;11.52;8.40;;;;;;;22.27;50.83;100814.38;6016870;23;101392;-83
2022/08/12 05:38:57;;;;;;;9.23;8.52;;;;;;;22.44;50.29;100811.28;6040834;23;96710;-82
2022/08/12 05:41:31;;;;;;;9.70;9.10;;;;;;;22.92;49.30;100811.16;6019411;23;97253;-83
2022/08/12 05:44:06;;;;;;;9.88;8.88;;;;;;;23.16;48.74;100799.53;6016623;23;101829;-82
2022/08/12 05:46:33;;;;;;;8.50;7.90;;;;;;;23.52;48.00;100801.06;6065363;23;98866;-83
2022/08/12 05:49:02;;;;;;;9.80;8.65;;;;;;;24.20;46.70;100811.63;6017730;23;96699;-83
2022/08/12 05:51:32;;;;;;;9.50;8.63;;;;;;;25.09;44.25;100815.66;6041089;23;97386;-84
2022/08/12 05:53:58;;;;;;;12.52;8.38;;;;;;;25.60;43.13;100803.13;6040840;23;97529;-84
2022/08/12 05:56:35;;;;;;;9.15;8.35;;;;;;;26.31;41.18;100794.91;6040423;23;100827;-83
2022/08/12 05:59:02;;;;;;;9.32;8.63;;;;;;;27.14;40.27;100779.84;6041038;23;97145;-83
2022/08/12 06:01:28;;;;;;;9.65;8.80;;;;;;;27.60;39.35;100812.25;6065165;23;97388;-84
2022/08/12 06:03:54;;;;;;;9.70;8.80;;;;;;;28.06;38.79;100805.03;6039885;23;101376;-82
2022/08/12 06:06:20;;;;;;;9.45;8.70;;;;;;;28.21;38.24;100798.91;6015617;23;99828;-84
2022/08/12 06:08:47;;;;;;;10.13;9.18;;;;;;;28.34;37.84;100797.69;6040593;23;96693;-84
2022/08/12 06:11:16;;;;;;;9.52;8.82;;;;;;;28.80;36.80;100793.00;6065048;23;96844;-86
2022/08/12 06:13:42;;;;;;;9.25;8.38;;;;;;;29.62;35.73;100805.09;6040865;23;101008;-84
2022/08/12 06:16:14;;;;;;;9.35;8.63;;;;;;;30.73;34.25;100811.97;6040200;23;101460;-82
2022/08/12 06:18:40;;;;;;;9.82;8.80;;;;;;;31.21;33.48;100799.31;6040045;23;96662;-86
2022/08/12 06:21:11;;;;;;;9.20;8.50;;;;;;;31.70;32.60;100772.00;6041178;23;96948;-88
2022/08/12 06:23:37;;;;;;;;;;;;;;;31.73;32.23;100790.63;6066715;23;97493;-86
2022/08/12 06:26:04;;;;;;;9.63;8.82;;;;;;;32.27;31.61;100787.91;6041728;23;97817;-87
2022/08/12 06:28:29;;;;;;;9.90;8.88;;;;;;;33.14;30.78;100788.25;6041204;23;96610;-85
2022/08/12 06:30:56;;;;;;;9.70;9.05;;;;;;;33.34;30.18;100788.50;6041459;23;97144;-87
2022/08/12 06:33:22;;;;;;;9.15;8.52;;;;;;;33.20;29.94;100786.66;6041182;23;97162;-87
2022/08/12 06:35:48;;;;;;;9.85;9.15;;;;;;;33.17;30.06;100778.88;6065804;23;97809;-86
2022/08/12 06:38:21;;;;;;;10.18;9.50;;;;;;;33.40;29.55;100784.19;6040965;23;96732;-85
2022/08/12 06:43:35;;;;;;;10.05;9.40;;;;;;;33.99;29.43;100781.31;6092056;23;98098;-87
2022/08/12 06:46:02;;;;;;;9.65;8.93;;;;;;;34.01;28.82;100789.28;6041397;23;101120;-86
2022/08/12 06:48:28;;;;;;;9.95;9.18;;;;;;;34.21;29.25;100790.34;6017105;23;96708;-87
2022/08/12 06:50:54;;;;;;;10.73;9.38;;;;;;;33.90;29.67;100800.69;6041339;23;96840;-86
2022/08/12 06:53:22;;;;;;;10.35;9.30;;;;;;;33.70;29.65;100793.16;6064310;23;97910;-87
2022/08/12 06:55:48;;;;;;;9.65;8.80;;;;;;;33.86;29.37;100794.81;6016998;23;100984;-86
2022/08/12 06:58:15;;;;;;;10.35;9.50;;;;;;;34.50;28.63;100785.75;6065830;23;96966;-86
2022/08/12 07:00:42;;;;;;;9.32;8.82;;;;;;;35.03;28.00;100786.16;6015808;23;96766;-87
2022/08/12 07:03:08;;;;;;;9.98;9.30;;;;;;;35.08;27.78;100778.25;6041110;23;101114;-86
2022/08/12 07:05:34;;;;;;;10.05;9.25;;;;;;;35.64;27.36;100790.03;6040739;23;100124;-85
2022/08/12 07:08:00;;;;;;;10.23;9.32;;;;;;;36.04;26.90;100783.63;6040770;23;96994;-86
2022/08/12 07:10:26;;;;;;;9.70;9.00;;;;;;;36.79;26.46;100782.56;6091803;23;96966;-86
2022/08/12 07:12:53;;;;;;;9.85;9.25;;;;;;;37.80;25.75;100762.81;6041534;23;101022;-86
2022/08/12 07:15:25;;;;;;;10.48;9.88;;;;;;;37.43;25.17;100764.47;6040177;23;97954;-86
2022/08/12 07:20:42;;;;;;;10.15;9.40;;;;;;;37.58;24.75;100762.31;6067058;23;96600;-87
2022/08/12 07:23:08;;;;;;;10.20;9.48;;;;;;;37.40;25.14;100765.75;6065176;23;101151;-86
2022/08/12 07:25:34;;;;;;;10.35;9.73;;;;;;;38.02;24.87;100755.97;6065015;23;98262;-86
2022/08/12 07:28:22;;;;;;;9.95;9.45;;;;;;;38.55;24.65;100757.41;6042164;23;96963;-87
2022/08/12 07:30:49;;;;;;;10.40;9.50;;;;;;;38.76;23.75;100736.94;6040766;23;96859;-86
2022/08/12 07:33:16;;;;;;;10.27;9.55;;;;;;;39.56;23.13;100760.69;6064624;23;97175;-87
2022/08/12 07:35:44;;;;;;;9.68;9.18;;;;;;;39.49;23.08;100758.03;6040926;23;101104;-84
2022/08/12 07:38:42;;;;;;;9.93;9.32;;;;;;;39.77;23.01;100759.38;6040455;23;97176;-83
2022/08/12 07:41:17;;;;;;;10.30;9.60;;;;;;;40.37;22.57;100748.22;6065702;23;97130;-86
2022/08/12 07:43:46;;;;;;;10.23;9.43;;;;;;;40.60;22.05;100741.88;6040128;23;97998;-87
2022/08/12 07:46:19;;;;;;;10.23;9.53;;;;;;;40.88;21.61;100754.09;6064710;23;98453;-84
2022/08/12 07:48:50;;;;;;;10.38;9.68;;;;;;;41.27;21.89;100757.09;6041709;23;97374;-84
2022/08/12 07:51:17;;;;;;;9.63;9.13;;;;;;;40.99;21.67;100753.22;6040045;23;96649;-85
2022/08/12 07:53:42;;;;;;;10.10;9.50;;;;;;;41.03;21.52;100745.31;6039786;23;101214;-84
2022/08/12 07:56:09;;;;;;;9.88;9.27;;;;;;;41.50;21.09;100746.03;6064538;23;100824;-84
2022/08/12 07:58:39;;;;;;;10.63;9.88;;;;;;;41.42;21.18;100751.88;6015710;23;96686;-84
2022/08/12 08:01:16;;;;;;;10.25;9.57;;;;;;;41.75;21.51;100745.66;6041140;23;96925;-82
2022/08/12 08:06:30;;;;;;;10.05;9.20;;;;;;;42.12;20.42;100749.88;6065202;23;101305;-88
2022/08/12 08:08:58;;;;;;;10.70;9.80;;;;;;;41.89;20.54;100753.59;6072261;23;96753;-86
2022/08/12 08:14:09;;;;;;;9.90;9.23;;;;;;;41.88;20.76;100738.16;6039996;23;100571;-88
2022/08/12 08:16:39;;;;;;;9.93;9.23;;;;;;;42.43;20.38;100742.94;6038106;23;97174;-89
2022/08/12 08:19:06;;;;;;;10.85;10.15;;;;;;;42.25;21.00;100747.59;6039141;23;96782;-88
2022/08/12 08:21:32;;;;;;;10.20;9.60;;;;;;;42.44;20.23;100731.63;6062188;23;97194;-86
2022/08/12 08:24:13;;;;;;;10.45;9.75;;;;;;;41.75;20.99;100748.41;6013461;23;101435;-88
2022/08/12 08:26:39;;;;;;;10.10;9.23;;;;;;;41.84;20.52;100741.41;6038451;23;101706;-83
2022/08/12 08:29:07;;;;;;;10.85;10.15;;;;;;;42.10;20.81;100741.88;6059826;23;97339;-89
2022/08/12 08:31:34;;;;;;;10.13;9.52;;;;;;;42.16;20.07;100742.78;6037391;23;97287;-87
2022/08/12 08:34:00;;;;;;;10.88;10.05;;;;;;;42.22;20.23;100739.00;6038532;23;97574;-88
2022/08/12 08:36:26;;;;;;;10.60;9.90;;;;;;;42.40;19.98;100724.97;6064556;23;97995;-89
2022/08/12 08:38:52;;;;;;;10.57;9.98;;;;;;;42.24;20.03;100736.81;6041140;23;96628;-91
2022/08/12 08:44:02;;;;;;;10.70;10.00;;;;;;;42.77;20.41;100729.09;6087244;23;98405;-88
2022/08/12 08:46:27;;;;;;;10.75;10.02;;;;;;;43.59;19.65;100734.50;6063223;23;97729;-89
2022/08/12 08:48:53;;;;;;;10.50;9.90;;;;;;;43.50;19.66;100736.03;6011214;23;97222;-88
2022/08/12 08:51:22;;;;;;;10.75;10.05;;;;;;;42.28;20.71;100736.06;6064798;23;97250;-90
2022/08/12 08:53:48;;;;;;;11.18;10.45;;;;;;;42.46;20.00;100734.16;6016745;23;100312;-90
2022/08/12 08:56:13;;;;;;;10.98;10.13;;;;;;;43.15;19.52;100720.75;6040745;23;99669;-87
2022/08/12 08:58:39;;;;;;;10.77;10.18;;;;;;;40.16;21.54;100716.63;6039218;23;97227;-88
2022/08/12 09:01:05;;;;;;;10.73;10.13;;;;;;;41.37;20.65;100724.28;6017133;23;96974;-90
2022/08/12 09:03:32;;;;;;;11.32;10.63;;;;;;;41.80;19.73;100726.47;6040756;23;99655;-94
2022/08/12 09:06:00;;;;;;;10.45;9.85;;;;;;;42.09;19.89;100718.13;6040347;23;98988;-92
2022/08/12 09:08:25;;;;;;;10.90;10.10;;;;;;;42.08;19.27;100710.13;6041186;23;97034;-91
2022/08/12 09:10:51;;;;;;;10.93;10.23;;;;;;;42.49;19.56;100719.84;6039820;23;96952;-86
2022/08/12 09:13:31;;;;;;;11.00;10.07;;;;;;;42.16;20.33;100717.97;6038578;23;100077;-83
2022/08/12 09:15:57;;;;;;;10.32;9.73;;;;;;;42.36;19.89;100734.00;6040761;23;101690;-85
2022/08/12 09:18:23;;;;;;;10.18;9.38;;;;;;;42.03;20.67;100727.41;6037549;23;96951;-81
2022/08/12 09:20:49;;;;;;;9.95;9.45;;;;;;;42.45;19.98;100715.94;6037204;23;97284;-86
2022/08/12 09:23:16;;;;;;;10.00;9.43;;;;;;;41.13;20.90;100718.00;6038186;23;97491;-88
2022/08/12 09:25:43;;;;;;;9.90;9.25;;;;;;;38.47;23.08;100730.28;6038257;23;98634;-90
2022/08/12 09:28:10;;;;;;;9.80;8.90;;;;;;;37.55;24.06;100721.69;6040132;23;96946;-90
2022/08/12 09:30:37;;;;;;;9.07;8.50;;;;;;;35.80;25.89;100735.88;6038776;23;97356;-88
2022/08/12 09:33:04;;;;;;;9.77;8.98;;;;;;;34.77;26.78;100736.94;6036267;23;101520;-88
2022/08/12 09:35:32;;;;;;;9.55;8.70;;;;;;;33.89;28.23;100729.06;6038178;23;97977;-83
2022/08/12 09:38:01;;;;;;;9.35;8.85;;;;;;;33.27;29.33;100732.34;6065735;23;97012;-83
2022/08/12 09:40:28;;;;;;;9.30;8.60;;;;;;;33.60;28.99;100735.47;6038600;23;97176;-83
2022/08/12 09:45:44;;;;;;;9.00;8.40;;;;;;;33.16;29.67;100732.81;6042965;23;101116;-83
2022/08/12 09:48:15;;;;;;;8.45;7.85;;;;;;;33.64;29.03;100727.78;6041223;23;96870;-84
2022/08/12 09:50:42;;;;;;;8.60;7.97;;;;;;;33.77;29.11;100715.16;6066258;23;96914;-83
2022/08/12 09:53:23;;;;;;;9.10;8.43;;;;;;;33.98;29.08;100716.16;6041408;23;97580;-85
2022/08/12 09:55:56;;;;;;;8.48;7.82;;;;;;;32.90;29.66;100713.25;6039919;23;97849;-90
2022/08/12 09:58:27;;;;;;;9.55;8.77;;;;;;;31.52;31.13;100716.16;6038403;23;97248;-85
2022/08/12 10:01:03;;;;;;;8.68;8.00;;;;;;;30.51;32.77;100713.31;6016485;23;97025;-85
2022/08/12 10:03:35;;;;;;;9.02;8.30;;;;;;;30.63;33.30;100720.03;6039903;23;97371;-84
2022/08/12 10:06:02;;;;;;;8.95;8.15;;;;;;;31.46;32.42;100719.59;6041674;23;101678;-84
2022/08/12 10:08:32;;;;;;;8.18;7.68;;;;;;;31.44;31.72;100707.22;6039283;23;97097;-84
2022/08/12 10:13:43;;;;;;;8.80;8.27;;;;;;;31.71;31.15;100692.31;6043772;23;101598;-84
2022/08/12 10:16:30;;;;;;;8.77;8.00;;;;;;;31.57;31.45;100683.06;6017106;23;101089;-84
2022/08/12 10:19:00;;;;;;;8.15;7.65;;;;;;;31.82;31.15;100685.59;6041847;23;96773;-84
2022/08/12 10:21:26;;;;;;;;;;;;;;;31.78;31.79;100691.38;6041865;23;96902;-84
2022/08/12 10:23:53;;;;;;;8.30;7.55;;;;;;;31.45;32.11;100674.50;6041650;23;97697;-85
2022/08/12 10:31:50;;;;;;;8.95;7.85;;;;;;;30.76;33.68;100692.41;6046075;23;96920;-84
2022/08/12 10:34:20;;;;;;;8.18;7.47;;;;;;;30.81;33.60;100685.50;6063056;23;100777;-87
2022/08/12 10:36:47;;;;;;;8.10;7.60;;;;;;;30.22;34.99;100693.91;6014640;23;99359;-86
2022/08/12 10:39:15;;;;;;;8.32;7.72;;;;;;;30.35;34.07;100684.41;6039256;23;97056;-84
2022/08/12 10:44:26;;;;;;;8.32;7.68;;;;;;;30.07;34.94;100687.44;6041936;23;101670;-84
2022/08/12 10:46:52;;;;;;;8.13;7.63;;;;;;;29.94;35.76;100692.53;6039154;23;101562;-86
2022/08/12 10:49:18;;;;;;;8.55;7.70;;;;;;;30.20;34.92;100690.50;6063383;23;97391;-84
2022/08/12 10:51:47;;;;;;;8.38;7.35;;;;;;;30.04;35.49;100681.53;6039592;23;96848;-88
2022/08/12 10:54:18;;;;;;;8.20;7.60;;;;;;;29.70;36.40;100672.59;6039558;23;98463;-87
2022/08/12 10:56:47;;;;;;;7.38;6.88;;;;;;;30.05;34.53;100670.56;6063605;23;98382;-86
2022/08/12 10:59:14;;;;;;;8.27;7.63;;;;;;;29.90;33.66;100670.38;6017534;23;97401;-86
2022/08/12 11:01:41;;;;;;;8.02;7.53;;;;;;;29.72;34.14;100667.00;6040407;23;97439;-87
2022/08/12 11:04:12;;;;;;;8.15;7.63;;;;;;;29.59;34.89;100659.34;6038486;23;101178;-86
2022/08/12 11:06:46;;;;;;;8.13;7.43;;;;;;;29.10;35.28;100678.19;6039316;23;101283;-86
2022/08/12 11:09:17;;;;;;;8.70;7.30;;;;;;;28.91;35.69;100659.50;6066184;23;97151;-86
2022/08/12 11:11:47;;;;;;;8.05;7.40;;;;;;;28.85;35.97;100674.50;6041032;23;96700;-86
2022/08/12 11:14:16;;;;;;;8.15;7.38;;;;;;;28.73;36.07;100665.84;6039362;23;101063;-88
2022/08/12 11:16:45;;;;;;;8.50;7.07;;;;;;;28.77;36.09;100664.53;6038500;23;97877;-86
2022/08/12 11:19:11;;;;;;;10.20;7.28;;;;;;;28.97;36.23;100643.47;6038135;23;97268;-83
2022/08/12 11:21:37;;;;;;;7.78;7.32;;;;;;;28.88;35.55;100639.03;6037890;23;97051;-84
2022/08/12 11:24:03;;;;;;;7.85;7.32;;;;;;;28.75;36.05;100635.97;6062807;23;98494;-85
2022/08/12 11:26:28;;;;;;;7.68;6.97;;;;;;;28.77;35.55;100651.00;6061268;23;98436;-85
2022/08/12 11:28:54;;;;;;;7.80;7.20;;;;;;;28.73;36.11;100649.63;6061594;23;97334;-84
2022/08/12 11:31:19;;;;;;;7.68;7.18;;;;;;;28.65;35.29;100652.28;6037736;23;97313;-83
2022/08/12 11:33:45;;;;;;;7.63;7.03;;;;;;;28.59;35.45;100631.34;6037606;23;97963;-84
2022/08/12 11:36:10;;;;;;;7.78;6.95;;;;;;;28.72;35.40;100647.94;6037051;23;97518;-84
2022/08/12 11:38:36;;;;;;;7.80;7.30;;;;;;;28.95;35.16;100644.66;6034914;23;97140;-86
2022/08/12 11:41:03;;;;;;;7.72;7.07;;;;;;;28.90;35.42;100634.34;6038670;23;97030;-88
2022/08/12 11:43:30;;;;;;;7.20;6.60;;;;;;;29.03;34.36;100634.75;6039717;23;99959;-89
2022/08/12 11:45:56;;;;;;;14.05;9.13;;;;;;;28.77;36.01;100625.84;6040407;23;100722;-91
2022/08/12 11:48:21;;;;;;;7.80;7.22;;;;;;;28.91;35.55;100638.72;6065059;23;96686;-85
2022/08/12 11:50:47;;;;;;;9.00;8.20;;;;;;;28.97;35.86;100635.34;6040166;23;96877;-88
2022/08/12 11:53:13;;;;;;;7.85;7.30;;;;;;;29.01;35.23;100628.63;6039594;23;101286;-90
2022/08/12 11:55:38;;;;;;;7.88;7.25;;;;;;;28.81;35.51;100636.16;6067597;23;97345;-93
2022/08/12 11:58:03;;;;;;;7.70;7.30;;;;;;;28.64;35.88;100632.53;6044498;23;96942;-89
2022/08/12 12:00:29;;;;;;;8.07;7.50;;;;;;;28.57;36.50;100622.56;6042462;23;97427;-87
2022/08/12 12:02:55;;;;;;;8.07;7.57;;;;;;;28.54;36.21;100614.78;6062151;23;98088;-89
2022/08/12 12:05:20;;;;;;;8.10;7.40;;;;;;;28.56;35.82;100613.59;6064348;23;97045;-80
2022/08/12 12:07:46;;;;;;;7.80;7.30;;;;;;;28.09;35.97;100616.69;6038673;23;96731;-84
2022/08/12 12:10:14;;;;;;;7.50;7.10;;;;;;;28.14;36.06;100624.31;6039689;23;97285;-81
2022/08/12 12:12:41;;;;;;;7.55;7.13;;;;;;;28.20;35.41;100615.59;6039374;23;101026;-85
2022/08/12 12:15:07;;;;;;;7.18;6.78;;;;;;;28.20;35.78;100602.09;6040339;23;97565;-82
2022/08/12 12:17:38;;;;;;;8.05;7.43;;;;;;;28.44;36.09;100606.78;6063733;23;96740;-80
2022/08/12 12:20:10;;;;;;;;;;;;;;;28.40;36.14;100608.94;6016327;23;96781;-82
2022/08/12 12:22:36;;;;;;;7.13;6.70;;;;;;;28.63;36.13;100614.66;6016799;23;100806;-84
2022/08/12 12:25:03;;;;;;;7.82;7.28;;;;;;;28.69;35.78;100615.03;6015350;23;100254;-86
2022/08/12 12:27:43;;;;;;;8.35;7.55;;;;;;;28.71;35.45;100605.75;6064821;23;97056;-85
2022/08/12 12:30:09;;;;;;;8.25;7.50;;;;;;;28.74;35.04;100607.25;6039878;23;97084;-86
2022/08/12 12:32:34;;;;;;;8.10;7.50;;;;;;;28.82;34.92;100612.69;6064498;23;101394;-86
2022/08/12 12:35:00;;;;;;;7.95;7.35;;;;;;;28.82;35.09;100596.47;6041019;23;100041;-87
2022/08/12 12:37:25;;;;;;;7.88;7.38;;;;;;;28.63;35.41;100593.06;6090025;23;96594;-82
2022/08/12 12:39:50;;;;;;;8.02;7.45;;;;;;;28.54;36.33;100607.53;6041117;23;97269;-84
2022/08/12 12:42:16;;;;;;;7.90;7.30;;;;;;;28.25;36.28;100612.41;6040113;23;97529;-80
2022/08/12 12:44:41;;;;;;;8.02;7.40;;;;;;;28.16;35.69;100611.53;6011539;23;100812;-81
2022/08/12 12:47:07;;;;;;;8.10;7.45;;;;;;;28.08;35.39;100598.81;6062228;23;97176;-81
2022/08/12 12:49:32;;;;;;;7.90;7.30;;;;;;;28.14;35.99;100598.19;6036900;23;96981;-80
2022/08/12 12:51:58;;;;;;;9.90;7.55;;;;;;;28.15;35.98;100582.81;6036640;23;105436;-81
2022/08/12 12:54:23;;;;;;;7.85;7.25;;;;;;;28.29;35.76;100579.53;6036604;23;100627;-79
2022/08/12 12:56:53;;;;;;;7.75;7.30;;;;;;;28.27;35.28;100610.38;6036195;23;97147;-82
2022/08/12 12:59:19;;;;;;;7.55;7.15;;;;;;;28.13;35.69;100587.53;6063838;23;96767;-83
2022/08/12 13:01:44;;;;;;;7.82;7.22;;;;;;;28.28;35.95;100595.91;6037605;23;97491;-81
2022/08/12 13:04:10;;;;;;;7.90;7.40;;;;;;;28.43;36.41;100603.25;6063742;23;101617;-80
2022/08/12 13:06:37;;;;;;;8.35;7.53;;;;;;;28.60;36.04;100595.25;6036567;23;97339;-83
2022/08/12 13:09:02;;;;;;;7.53;6.90;;;;;;;28.27;36.31;100581.53;6039275;23;97210;-82
2022/08/12 13:11:28;;;;;;;8.27;7.68;;;;;;;28.27;36.41;100591.50;6038745;23;101016;-83
2022/08/12 13:13:55;;;;;;;7.82;7.10;;;;;;;28.15;36.02;100588.22;6039638;23;100986;-83